ADDS METAR Data INFO
IDs: Format: Raw Decoded Include TAF

Data at: 1942 UTC 18 Feb 2018

KRYN 181845Z 00000KT 10SM CLR 19/08 A3000
KRYN 181745Z 00000KT 10SM CLR 17/10 A3002
KRYN 181658Z 00000KT 10SM CLR 15/11 A3002
KRYN 181545Z 00000KT 10SM CLR 11/09 A3003
KRYN 181445Z 00000KT 10SM CLR 09/08 A3002
KRYN 181345Z 00000KT 10SM CLR 09/09 A3001
KRYN 181245Z 13004KT 10SM CLR 09/09 A3001
KRYN 180245Z 27005KT 10SM CLR 16/12 A3010 RMK LAST
KRYN 180145Z 30007KT 10SM CLR 17/12 A3009
KRYN 180046Z 32008KT 10SM CLR 18/12 A3009
KRYN 172345Z 31004KT 10SM CLR 20/10 A3008
KRYN 172245Z 28005KT 10SM CLR 21/09 A3008
KRYN 172146Z 05003KT 10SM CLR 20/09 A3009
KRYN 172051Z 18005KT 10SM CLR 20/09 A3011
KRYN 171845Z 10007KT 10SM FEW020 FEW032 17/11 A3018
KRYN 171745Z 10003KT 10SM FEW014 16/12 A3020
KRYN 171645Z 00000KT 5SM SCT008 SCT020 13/13 A3020
KRYN 171545Z 00000KT 4SM FEW025 FEW032 12/12 A3019
KRYN 171345Z 00000KT 2SM BKN002 12/12 A3016 FG
KRYN 171245Z 00000KT 5 OVC002 12/12 A3014 FG